createdAt,value
2022-10-02T00:02:50.531Z,12.13
2022-10-02T00:05:41.373Z,10.70
2022-10-02T00:08:35.539Z,9.83
2022-10-02T00:11:25.157Z,11.07
2022-10-02T00:14:15.298Z,10.07
2022-10-02T00:17:01.485Z,9.30
2022-10-02T00:19:46.734Z,9.47
2022-10-02T00:22:50.934Z,9.23
2022-10-02T00:25:48.180Z,8.67
2022-10-02T00:28:50.190Z,9.23
2022-10-02T00:31:59.396Z,8.40
2022-10-02T00:34:59.903Z,8.07
2022-10-02T00:38:14.271Z,8.33
2022-10-02T00:41:11.470Z,7.37
2022-10-02T00:44:33.109Z,7.17
2022-10-02T00:47:33.640Z,7.30
2022-10-02T00:50:37.211Z,7.77
2022-10-02T00:53:43.666Z,7.23
2022-10-02T00:56:47.396Z,6.60
2022-10-02T00:59:38.735Z,6.87
2022-10-02T01:02:23.884Z,7.00
2022-10-02T01:05:09.949Z,6.03
2022-10-02T01:07:55.934Z,7.07
2022-10-02T01:10:41.811Z,6.50
2022-10-02T01:13:26.989Z,6.77
2022-10-02T01:16:13.624Z,7.57
2022-10-02T01:18:58.756Z,6.07
2022-10-02T01:21:49.142Z,6.17
2022-10-02T01:24:39.813Z,6.20
2022-10-02T01:27:26.124Z,6.63
2022-10-02T01:30:15.457Z,6.60
2022-10-02T01:33:03.341Z,7.10
2022-10-02T01:35:48.903Z,6.63
2022-10-02T01:38:35.072Z,6.33
2022-10-02T01:41:20.020Z,6.90
2022-10-02T01:44:05.322Z,7.70
2022-10-02T01:47:10.495Z,6.57
2022-10-02T01:50:34.247Z,6.77
2022-10-02T01:53:44.148Z,7.07
2022-10-02T01:56:35.414Z,7.22
2022-10-02T01:59:47.635Z,7.60
2022-10-02T02:02:48.229Z,6.47
2022-10-02T02:06:01.364Z,7.78
2022-10-02T02:08:54.478Z,6.80
2022-10-02T02:11:51.374Z,7.80
2022-10-02T02:14:45.055Z,8.37
2022-10-02T02:17:40.370Z,8.80
2022-10-02T02:20:32.585Z,9.57
2022-10-02T02:23:22.536Z,7.87
2022-10-02T02:26:11.938Z,8.03
2022-10-02T02:29:01.780Z,9.25
2022-10-02T02:31:52.080Z,9.45
2022-10-02T02:34:45.673Z,9.50
2022-10-02T02:37:35.948Z,9.87
2022-10-02T02:40:28.113Z,9.93
2022-10-02T02:43:20.885Z,9.80
2022-10-02T02:46:23.669Z,9.77
2022-10-02T02:49:11.730Z,9.95
2022-10-02T02:52:00.645Z,11.18
2022-10-02T02:54:56.033Z,9.93
2022-10-02T02:57:49.372Z,10.53
2022-10-02T03:00:34.866Z,10.65
2022-10-02T03:03:20.181Z,11.18
2022-10-02T03:06:17.465Z,11.82
2022-10-02T03:09:02.659Z,11.23
2022-10-02T03:12:19.442Z,11.40
2022-10-02T03:15:43.170Z,12.80
2022-10-02T03:18:31.383Z,12.60
2022-10-02T03:21:30.381Z,13.00
2022-10-02T03:24:45.721Z,12.55
2022-10-02T03:27:54.037Z,14.18
2022-10-02T03:30:41.969Z,12.20
2022-10-02T03:33:28.910Z,12.63
2022-10-02T03:36:14.612Z,12.63
2022-10-02T03:42:11.885Z,14.27
2022-10-02T03:44:56.707Z,14.63
2022-10-02T03:47:42.069Z,15.20
2022-10-02T03:50:26.944Z,16.20
2022-10-02T03:53:18.802Z,18.10
2022-10-02T03:56:12.420Z,19.23
2022-10-02T03:59:01.406Z,20.10
2022-10-02T04:01:50.455Z,21.17
2022-10-02T04:04:45.325Z,20.75
2022-10-02T04:07:36.874Z,21.98
2022-10-02T04:10:28.165Z,19.20
2022-10-02T04:13:32.057Z,17.57
2022-10-02T04:16:27.685Z,18.20
2022-10-02T04:19:23.705Z,17.53
2022-10-02T04:22:15.535Z,17.40
2022-10-02T04:25:12.160Z,17.27
2022-10-02T04:28:02.963Z,17.57
2022-10-02T04:30:48.152Z,19.80
2022-10-02T04:33:38.247Z,20.38
2022-10-02T04:36:59.674Z,22.30
2022-10-02T04:40:01.356Z,24.23
2022-10-02T04:43:34.562Z,27.67
2022-10-02T04:46:44.981Z,29.73
2022-10-02T04:49:48.279Z,31.53
2022-10-02T04:52:36.027Z,36.75
2022-10-02T04:55:38.657Z,37.00
2022-10-02T04:58:38.964Z,38.97
2022-10-02T05:01:26.883Z,43.40
2022-10-02T05:04:33.388Z,45.47
2022-10-02T05:07:46.747Z,44.63
2022-10-02T05:10:43.354Z,42.23
2022-10-02T05:13:34.483Z,42.60
2022-10-02T05:16:37.755Z,40.15
2022-10-02T05:20:00.509Z,39.93
2022-10-02T05:23:18.632Z,38.70
2022-10-02T05:26:41.572Z,36.93
2022-10-02T05:29:38.875Z,36.53
2022-10-02T05:32:49.160Z,38.03
2022-10-02T05:36:05.466Z,36.67
2022-10-02T05:39:02.655Z,36.00
2022-10-02T05:42:06.413Z,37.42
2022-10-02T05:44:59.900Z,38.53
2022-10-02T05:47:45.518Z,39.20
2022-10-02T05:50:35.398Z,37.87
2022-10-02T05:53:38.668Z,38.45
2022-10-02T05:56:40.486Z,38.27
2022-10-02T05:59:39.271Z,37.30
2022-10-02T06:02:41.071Z,36.47
2022-10-02T06:05:53.466Z,37.10
2022-10-02T06:08:46.502Z,35.30
2022-10-02T06:11:52.709Z,33.83
2022-10-02T06:14:50.792Z,33.83
2022-10-02T06:17:53.246Z,35.00
2022-10-02T06:21:23.745Z,33.75
2022-10-02T06:24:18.513Z,31.08
2022-10-02T06:27:12.596Z,31.45
2022-10-02T06:30:02.497Z,30.67
2022-10-02T06:33:21.651Z,31.02
2022-10-02T06:36:25.389Z,29.80
2022-10-02T06:39:22.560Z,30.55
2022-10-02T06:42:47.971Z,29.92
2022-10-02T06:46:02.336Z,27.92
2022-10-02T06:48:59.714Z,27.85
2022-10-02T06:51:47.351Z,28.27
2022-10-02T06:54:42.099Z,24.52
2022-10-02T06:58:05.047Z,24.83
2022-10-02T07:00:56.617Z,22.88
2022-10-02T07:04:14.242Z,23.67
2022-10-02T07:07:12.637Z,23.08
2022-10-02T07:10:12.897Z,23.88
2022-10-02T07:13:13.511Z,21.17
2022-10-02T07:16:22.517Z,22.13
2022-10-02T07:19:41.611Z,21.65
2022-10-02T07:22:54.622Z,24.77
2022-10-02T07:25:58.097Z,20.33
2022-10-02T07:28:51.477Z,20.70
2022-10-02T07:32:08.745Z,17.75
2022-10-02T07:35:07.939Z,18.15
2022-10-02T07:38:14.399Z,17.85
2022-10-02T07:41:18.650Z,19.02
2022-10-02T07:44:19.254Z,18.65
2022-10-02T07:47:15.963Z,19.17
2022-10-02T07:50:25.936Z,19.95
2022-10-02T07:53:22.987Z,19.10
2022-10-02T07:56:11.862Z,18.95
2022-10-02T07:59:03.747Z,17.67
2022-10-02T08:01:50.708Z,18.30
2022-10-02T08:04:37.365Z,18.02
2022-10-02T08:07:22.795Z,16.58
2022-10-02T08:10:12.719Z,16.70
2022-10-02T08:13:06.243Z,17.48
2022-10-02T08:15:56.055Z,16.55
2022-10-02T08:18:49.014Z,15.00
2022-10-02T08:21:43.059Z,15.77
2022-10-02T08:24:36.276Z,14.50
2022-10-02T08:27:28.917Z,13.57
2022-10-02T08:30:14.200Z,12.68
2022-10-02T08:32:59.201Z,13.10
2022-10-02T08:36:22.180Z,13.63
2022-10-02T08:39:13.440Z,13.38
2022-10-02T08:42:23.665Z,12.30
2022-10-02T08:45:32.609Z,12.55
2022-10-02T08:48:46.651Z,24.42
2022-10-02T08:51:40.982Z,11.25
2022-10-02T08:54:46.157Z,11.05
2022-10-02T08:57:49.710Z,10.70
2022-10-02T09:00:46.867Z,10.32
2022-10-02T09:04:03.340Z,10.18
2022-10-02T09:07:10.256Z,10.80
2022-10-02T09:09:58.959Z,9.27
2022-10-02T09:12:53.545Z,9.43
2022-10-02T09:15:56.242Z,8.88
2022-10-02T09:19:10.857Z,9.10
2022-10-02T09:22:35.982Z,9.18
2022-10-02T09:25:38.971Z,8.98
2022-10-02T09:28:30.035Z,9.07
2022-10-02T09:31:36.794Z,8.50
2022-10-02T09:35:00.357Z,9.43
2022-10-02T09:38:07.030Z,8.13
2022-10-02T09:41:27.095Z,7.38
2022-10-02T09:44:23.206Z,8.10
2022-10-02T09:47:21.923Z,7.13
2022-10-02T09:50:10.183Z,6.47
2022-10-02T09:53:23.610Z,7.00
2022-10-02T09:56:27.231Z,6.65
2022-10-02T09:59:30.368Z,6.60
2022-10-02T10:02:25.857Z,6.78
2022-10-02T10:05:30.475Z,6.05
2022-10-02T10:08:18.437Z,5.97
2022-10-02T10:11:22.282Z,5.72
2022-10-02T10:14:16.665Z,6.22
2022-10-02T10:17:20.564Z,5.60
2022-10-02T10:20:08.448Z,5.45
2022-10-02T10:22:59.458Z,5.90
2022-10-02T10:26:02.762Z,4.38
2022-10-02T10:29:25.552Z,5.03
2022-10-02T10:32:22.652Z,4.82
2022-10-02T10:35:34.505Z,6.07
2022-10-02T10:38:41.563Z,4.65
2022-10-02T10:41:41.728Z,4.35
2022-10-02T10:44:29.725Z,4.18
2022-10-02T10:48:06.626Z,4.25
2022-10-02T10:51:07.900Z,9.90
2022-10-02T10:54:31.003Z,3.72
2022-10-02T10:57:24.374Z,4.07
2022-10-02T11:00:09.389Z,3.60
2022-10-02T11:03:12.424Z,3.90
2022-10-02T11:06:09.655Z,3.88
2022-10-02T11:09:33.366Z,3.95
2022-10-02T11:12:27.589Z,3.75
2022-10-02T11:15:27.085Z,3.78
2022-10-02T11:18:24.770Z,3.20
2022-10-02T11:21:38.601Z,3.33
2022-10-02T11:24:37.772Z,3.50
2022-10-02T11:27:53.470Z,3.40
2022-10-02T11:31:00.095Z,3.40
2022-10-02T11:34:22.942Z,3.33
2022-10-02T11:37:21.525Z,2.92
2022-10-02T11:40:37.454Z,3.15
2022-10-02T11:44:13.562Z,3.53
2022-10-02T11:47:17.203Z,2.80
2022-10-02T11:50:32.640Z,3.00
2022-10-02T11:53:21.046Z,2.83
2022-10-02T11:56:13.595Z,2.80
2022-10-02T11:59:28.412Z,3.47
2022-10-02T12:02:35.409Z,3.00
2022-10-02T12:06:06.405Z,2.88
2022-10-02T12:09:10.157Z,2.83
2022-10-02T12:12:13.974Z,2.78
2022-10-02T12:15:04.559Z,2.55
2022-10-02T12:17:54.368Z,3.03
2022-10-02T12:20:59.545Z,2.80
2022-10-02T12:23:55.457Z,2.75
2022-10-02T12:26:40.420Z,2.75
2022-10-02T12:29:37.233Z,3.10
2022-10-02T12:32:53.450Z,2.72
2022-10-02T12:35:59.211Z,2.42
2022-10-02T12:39:16.739Z,2.40
2022-10-02T12:42:16.295Z,2.70
2022-10-02T12:45:19.307Z,3.20
2022-10-02T12:48:14.125Z,2.80
2022-10-02T12:51:37.851Z,2.45
2022-10-02T12:54:23.028Z,2.67
2022-10-02T12:57:17.102Z,2.58
2022-10-02T13:00:53.527Z,2.70
2022-10-02T13:04:27.144Z,2.50
2022-10-02T13:07:16.991Z,2.67
2022-10-02T13:10:23.842Z,2.42
2022-10-02T13:13:46.015Z,2.67
2022-10-02T13:16:31.217Z,2.78
2022-10-02T13:19:39.829Z,2.65
2022-10-02T13:23:00.393Z,2.20
2022-10-02T13:25:48.399Z,1.90
2022-10-02T13:29:07.695Z,2.10
2022-10-02T13:31:56.400Z,2.25
2022-10-02T13:34:56.138Z,2.40
2022-10-02T13:38:06.052Z,2.40
2022-10-02T13:41:12.167Z,1.98
2022-10-02T13:44:20.816Z,2.20
2022-10-02T13:47:06.040Z,2.28
2022-10-02T13:50:25.538Z,2.55
2022-10-02T13:53:16.444Z,2.38
2022-10-02T13:56:15.336Z,2.33
2022-10-02T13:59:31.464Z,2.60
2022-10-02T14:02:47.295Z,2.53
2022-10-02T14:05:35.694Z,1.95
2022-10-02T14:08:54.165Z,2.70
2022-10-02T14:12:07.495Z,2.17
2022-10-02T14:15:14.344Z,2.20
2022-10-02T14:18:26.854Z,2.15
2022-10-02T14:21:37.205Z,2.42
2022-10-02T14:24:37.711Z,2.45
2022-10-02T14:27:50.672Z,2.30
2022-10-02T14:30:50.997Z,2.30
2022-10-02T14:34:01.541Z,2.30
2022-10-02T14:37:00.258Z,2.42
2022-10-02T14:39:45.417Z,2.00
2022-10-02T14:42:52.727Z,1.95
2022-10-02T14:46:04.534Z,2.25
2022-10-02T14:49:14.410Z,2.22
2022-10-02T14:52:22.038Z,2.25
2022-10-02T14:55:15.368Z,2.30
2022-10-02T14:58:06.388Z,2.25
2022-10-02T15:01:08.945Z,2.20
2022-10-02T15:04:13.032Z,2.00
2022-10-02T15:07:12.166Z,2.00
2022-10-02T15:10:14.417Z,2.00
2022-10-02T15:13:14.018Z,2.10
2022-10-02T15:16:20.154Z,2.17
2022-10-02T15:19:20.071Z,1.83
2022-10-02T15:22:21.689Z,2.35
2022-10-02T15:25:32.971Z,2.17
2022-10-02T15:28:37.346Z,2.55
2022-10-02T15:31:36.567Z,2.10
2022-10-02T15:34:33.426Z,2.20
2022-10-02T15:37:33.423Z,1.90
2022-10-02T15:40:33.811Z,2.15
2022-10-02T15:44:00.121Z,1.92
2022-10-02T15:46:56.692Z,2.00
2022-10-02T15:50:06.727Z,2.40
2022-10-02T15:53:08.876Z,2.25
2022-10-02T15:56:13.888Z,2.25
2022-10-02T15:59:30.646Z,2.38
2022-10-02T16:02:34.747Z,2.53
2022-10-02T16:05:29.068Z,7.05
2022-10-02T16:08:32.754Z,2.30
2022-10-02T16:11:33.035Z,2.42
2022-10-02T16:14:27.659Z,2.42
2022-10-02T16:17:57.528Z,2.40
2022-10-02T16:20:54.945Z,2.45
2022-10-02T16:23:53.800Z,2.50
2022-10-02T16:27:20.538Z,2.60
2022-10-02T16:30:16.387Z,4.38
2022-10-02T16:33:20.762Z,24.35
2022-10-02T16:36:27.078Z,24.02
2022-10-02T16:39:24.410Z,6.90
2022-10-02T16:42:28.212Z,3.40
2022-10-02T16:45:25.123Z,6.45
2022-10-02T16:48:14.783Z,5.30
2022-10-02T16:51:28.752Z,4.05
2022-10-02T16:54:37.205Z,4.40
2022-10-02T16:57:25.177Z,5.80
2022-10-02T17:00:31.545Z,4.15
2022-10-02T17:03:33.403Z,4.25
2022-10-02T17:06:41.810Z,4.35
2022-10-02T17:09:34.757Z,3.13
2022-10-02T17:12:49.306Z,6.10
2022-10-02T17:15:46.611Z,3.38
2022-10-02T17:18:45.190Z,4.55
2022-10-02T17:21:50.056Z,11.30
2022-10-02T17:25:09.081Z,53.45
2022-10-02T17:28:19.491Z,30.20
2022-10-02T17:31:38.639Z,3.55
2022-10-02T17:34:27.279Z,2.60
2022-10-02T17:37:18.152Z,2.40
2022-10-02T17:40:24.285Z,2.55
2022-10-02T17:43:37.705Z,3.08
2022-10-02T17:46:58.335Z,2.72
2022-10-02T17:50:05.199Z,3.25
2022-10-02T17:53:00.491Z,2.72
2022-10-02T17:56:18.847Z,2.78
2022-10-02T17:59:31.959Z,3.08
2022-10-02T18:02:58.488Z,2.80
2022-10-02T18:05:57.377Z,2.83
2022-10-02T18:08:54.935Z,2.88
2022-10-02T18:12:11.866Z,2.72
2022-10-02T18:14:56.958Z,2.55
2022-10-02T18:18:07.908Z,2.80
2022-10-02T18:22:00.846Z,2.80
2022-10-02T18:25:03.700Z,2.92
2022-10-02T18:28:15.516Z,2.65
2022-10-02T18:31:44.343Z,3.17
2022-10-02T18:34:54.240Z,3.00
2022-10-02T18:37:49.885Z,2.60
2022-10-02T18:40:51.972Z,2.80
2022-10-02T18:43:55.961Z,2.63
2022-10-02T18:46:53.250Z,2.70
2022-10-02T18:50:14.436Z,2.88
2022-10-02T18:53:08.706Z,3.08
2022-10-02T18:56:12.809Z,3.13
2022-10-02T18:59:29.564Z,3.28
2022-10-02T19:02:38.314Z,2.80
2022-10-02T19:05:56.030Z,3.47
2022-10-02T19:08:59.969Z,2.83
2022-10-02T19:11:53.404Z,3.05
2022-10-02T19:14:41.005Z,2.95
2022-10-02T19:17:28.489Z,3.13
2022-10-02T19:20:50.811Z,3.00
2022-10-02T19:23:41.702Z,3.40
2022-10-02T19:26:34.158Z,3.13
2022-10-02T19:29:19.710Z,3.38
2022-10-02T19:32:10.593Z,27.85
2022-10-02T19:35:19.797Z,25.25
2022-10-02T19:38:22.241Z,3.72
2022-10-02T19:41:18.029Z,3.45
2022-10-02T19:44:07.865Z,3.22
2022-10-02T19:46:55.966Z,2.97
2022-10-02T19:49:41.644Z,3.20
2022-10-02T19:52:54.204Z,3.05
2022-10-02T19:55:42.263Z,3.63
2022-10-02T19:58:33.527Z,3.03
2022-10-02T20:01:26.433Z,3.42
2022-10-02T20:04:18.403Z,3.38
2022-10-02T20:07:04.577Z,3.22
2022-10-02T20:10:03.344Z,3.17
2022-10-02T20:12:58.019Z,3.50
2022-10-02T20:15:43.572Z,3.17
2022-10-02T20:18:28.858Z,3.03
2022-10-02T20:21:37.660Z,3.30
2022-10-02T20:24:41.638Z,3.40
2022-10-02T20:27:51.090Z,3.70
2022-10-02T20:30:45.518Z,3.30
2022-10-02T20:33:52.240Z,3.10
2022-10-02T20:36:51.226Z,3.10
2022-10-02T20:39:44.535Z,3.55
2022-10-02T20:42:38.998Z,3.45
2022-10-02T20:45:34.561Z,3.63
2022-10-02T20:49:07.997Z,3.78
2022-10-02T20:52:33.181Z,3.70
2022-10-02T20:55:26.370Z,3.67
2022-10-02T20:58:20.392Z,4.20
2022-10-02T21:01:18.355Z,4.00
2022-10-02T21:04:40.993Z,3.60
2022-10-02T21:07:44.604Z,3.73
2022-10-02T21:10:59.355Z,4.47
2022-10-02T21:13:56.381Z,4.15
2022-10-02T21:17:25.814Z,3.30
2022-10-02T21:20:50.377Z,3.90
2022-10-02T21:23:48.866Z,4.00
2022-10-02T21:27:05.380Z,3.30
2022-10-02T21:29:58.122Z,3.93
2022-10-02T21:32:55.820Z,3.90
2022-10-02T21:35:49.140Z,3.80
2022-10-02T21:39:11.970Z,3.60
2022-10-02T21:42:25.137Z,3.70
2022-10-02T21:45:10.194Z,3.70
2022-10-02T21:48:16.594Z,3.85
2022-10-02T21:51:20.562Z,4.50
2022-10-02T21:54:11.565Z,3.97
2022-10-02T21:57:10.844Z,3.75
2022-10-02T22:00:23.208Z,3.83
2022-10-02T22:03:20.572Z,4.17
2022-10-02T22:06:29.377Z,3.83
2022-10-02T22:09:48.425Z,3.97
2022-10-02T22:12:48.817Z,4.27
2022-10-02T22:16:00.592Z,4.13
2022-10-02T22:18:53.415Z,4.50
2022-10-02T22:21:47.819Z,4.07
2022-10-02T22:24:42.158Z,4.20
2022-10-02T22:27:30.147Z,3.50
2022-10-02T22:30:23.484Z,18.33
2022-10-02T22:33:23.930Z,10.67
2022-10-02T22:36:40.298Z,4.37
2022-10-02T22:39:25.128Z,3.80
2022-10-02T22:42:25.440Z,3.63
2022-10-02T22:45:21.591Z,4.05
2022-10-02T22:48:10.798Z,3.95
2022-10-02T22:51:04.037Z,3.77
2022-10-02T22:53:58.485Z,4.27
2022-10-02T22:57:01.997Z,4.20
2022-10-02T22:59:57.972Z,3.67
2022-10-02T23:02:52.611Z,4.30
2022-10-02T23:05:44.658Z,3.67
2022-10-02T23:08:52.004Z,3.90
2022-10-02T23:11:43.079Z,4.18
2022-10-02T23:14:47.878Z,4.47
2022-10-02T23:17:44.355Z,3.88
2022-10-02T23:20:36.739Z,4.30
2022-10-02T23:23:31.758Z,3.85
2022-10-02T23:26:16.738Z,4.07
2022-10-02T23:29:11.241Z,4.05
2022-10-02T23:32:17.390Z,4.55
2022-10-02T23:35:23.908Z,4.33
2022-10-02T23:38:20.974Z,4.37
2022-10-02T23:41:24.221Z,4.03
2022-10-02T23:44:28.896Z,3.90
2022-10-02T23:47:20.964Z,4.00
2022-10-02T23:50:21.598Z,4.63
2022-10-02T23:53:31.449Z,5.00
2022-10-02T23:56:38.716Z,4.20
2022-10-02T23:59:35.279Z,4.27
